AirNav   Everest Fuels
 
 840 users online  

48TX Tri-County Aerodrome
Trenton, Texas, USA

GOING TO TRENTON?


FAA INFORMATION EFFECTIVE 26 MARCH 2020

Location

FAA Identifier: 48TX
Lat/Long: 33-27-06.9100N 096-22-38.2400W
33-27.115167N 096-22.637333W
33.4519194,-96.3772889
(estimated)
Elevation: 790 ft. / 241 m (estimated)
Variation: 06E (1985)
From city: 2 miles NW of TRENTON, TX
Time zone: UTC -5 (UTC -6 during Standard Time)
Zip code: 75491

Airport Operations

Airport use: Private use. Permission required prior to landing
Activation date: 11/1990
Control tower: no
ARTCC: FORT WORTH CENTER
FSS: FORT WORTH FLIGHT SERVICE STATION
Attendance: UNATNDD
Wind indicator: yes
Segmented circle: no

Airport Communications

WX AWOS-3PT at F00 (14 nm NE): 118.05 (903-583-2082)
WX ASOS at TKI (20 nm SW): 119.925 (972-548-8525)
  • MULTICOM FREQ 123.075.

Nearby radio navigation aids

VOR radial/distance  VOR name  Freq  Var
BYPr228/8.8BONHAM VORTAC114.6006E
URHr174/29.5TEXOMA VOR/DME114.3005E

 
NDB name  Hdg/Dist  Freq  Var  ID
CADDO MILLS339/25.531606EMII -- .. ..
DENISON141/26.834106EDNI -.. -. ..
MESQUITE008/39.324803EPQF .--. --.- ..-.

Airport Services

Fuel available: 100LL JET-A MOGAS

Runway Information

Runway 17/35

Dimensions: 4500 x 150 ft. / 1372 x 46 m
Surface: concrete/turf
RWY 17/35 3800 FT CONC, 700 FT TURF.
RUNWAY 17  RUNWAY 35
Traffic pattern: leftleft

Airport Ownership and Management from official FAA records

Ownership: Privately-owned
Owner: SME PROPERTIES, LLC
P.O. BOX 1121, 5320 INVERRARY DR
ROSHARON, TX 77583
Phone (832) 428-5643
ATTN: STEPHEN BOYD SR.
Manager: BEN NELSON
1039 PR 438
WHITEWRIGHT, TX 75491
Phone 903-364-5103

Airport Operational Statistics

Aircraft based on the field: 7
Single engine airplanes: 6
Multi engine airplanes: 1
    
Aircraft operations: 15/year
100% local general aviation

Additional Remarks

PARACHUTE JUMPING ACTIVITIES SR-SS, 7 DAYS WK. SFC 14,000 MSL.
FOR CD CTC FORT WORTH ARTCC AT 817-858-7584.

Instrument Procedures

There are no published instrument procedures at 48TX.

Some nearby airports with instrument procedures:

F00 - Jones Field Airport (14 nm NE)
KSWI - Sherman Municipal Airport (15 nm NW)
KTKI - McKinney National Airport (20 nm SW)
KGYI - North Texas Regional Airport/Perrin Field (22 nm NW)
7F3 - Caddo Mills Municipal Airport (26 nm S)
 
Loc | Ops | Rwys | IFR | FBO | Links
Com | Nav | Svcs | Stats | Notes
Area around 48TX (Tri-County Aerodrome)
 
Road maps at: MapQuest Bing Google
 
Aerial photo
WARNING: Photo may not be current or correct
Aerial photo of 48TX (Tri-County Aerodrome)
Do you have a better or more recent aerial photo of Tri-County Aerodrome that you would like to share? If so, please send us your photo.

 
Sectional chart

 
Airport distance calculator
Flying to Tri-County Aerodrome? Find the distance to fly.

From to 48TX

Sunrise and sunset
Times for 04-Apr-2020
 Local
(UTC-5)
 Zulu
(UTC)
Morning civil twilight06:4411:44
Sunrise07:0912:09
Sunset19:4800:48
Evening civil twilight20:1301:13

Current date and time
Zulu (UTC)  04-Apr-2020 22:32:58
Local (UTC-5)  04-Apr-2020 17:32:58
 
METAR
KF00 
14nm NE 
042215Z AUTO 34010G16KT 10SM OVC009 07/05 A3005 RMK AO2 T00690054
KTKI 
19nm SW 
042153Z 02009KT 10SM OVC009 08/06 A3001 RMK AO2 RAE17 SLP175 P0001 T00830061
KGYI 
22nm NW 
042150Z 03007KT 10SM BKN012 OVC027 08/05 A3003
TAF
KDAL 
43nm SW 
042102Z 0421/0518 05005KT P6SM VCSH BKN010 OVC090 FM050200 03004KT P6SM BKN025 FM050900 VRB03KT 6SM BR OVC012 TEMPO 0513/0516 3SM BR BKN008
KDFW 
46nm SW 
042102Z 0421/0524 06007KT P6SM VCSH BKN008 OVC090 FM050200 03004KT P6SM OVC025 FM050900 VRB03KT 6SM BR OVC012 TEMPO 0513/0516 3SM BR BKN008 FM051900 15008KT P6SM BKN025
NOTAMs
Click for the latest NOTAMs
NOTAMs are issued by the DoD/FAA and will open in a separate window not controlled by AirNav.

 

 
 

Would you like to see your business listed on this page?

 If your business provides an interesting product or service to pilots, flight crews, aircraft, or users of the Tri-County Aerodrome, you should consider listing it here.  To start the listing process, click on the button below
 
Add a business
 

Other Pages about Tri-County Aerodrome

Update a link
 
Copyright © AirNav, LLC. All rights reserved. Privacy Policy  Contact